createdAt,value
2018-08-08T00:00:50.132Z,20.10
2018-08-08T00:03:31.552Z,20.00
2018-08-08T00:06:10.492Z,19.90
2018-08-08T00:08:55.136Z,19.90
2018-08-08T00:11:36.112Z,19.90
2018-08-08T00:14:21.752Z,19.80
2018-08-08T00:17:09.735Z,19.80
2018-08-08T00:19:57.646Z,19.80
2018-08-08T00:22:40.092Z,19.80
2018-08-08T00:38:13.348Z,19.70
2018-08-08T00:41:00.692Z,19.60
2018-08-08T00:43:40.052Z,19.40
2018-08-08T00:46:24.671Z,19.30
2018-08-08T00:51:43.072Z,19.30
2018-08-08T00:54:27.592Z,19.30
2018-08-08T00:59:51.992Z,19.20
2018-08-08T01:02:38.291Z,19.20
2018-08-08T01:08:06.835Z,19.20
2018-08-08T01:10:50.231Z,19.20
2018-08-08T01:13:34.894Z,19.10
2018-08-08T01:16:23.231Z,19.00
2018-08-08T01:19:03.381Z,19.00
2018-08-08T01:21:42.332Z,19.00
2018-08-08T01:24:27.991Z,18.90
2018-08-08T01:27:08.351Z,18.90
2018-08-08T01:29:52.611Z,18.90
2018-08-08T01:32:32.935Z,18.80
2018-08-08T01:35:13.311Z,18.80
2018-08-08T01:37:54.291Z,18.80
2018-08-08T01:43:14.598Z,18.70
2018-08-08T01:45:57.911Z,18.70
2018-08-08T01:48:43.933Z,18.70
2018-08-08T01:51:23.712Z,18.70
2018-08-08T01:54:05.852Z,18.60
2018-08-08T01:56:54.212Z,18.60
2018-08-08T01:59:37.251Z,18.60
2018-08-08T02:02:16.171Z,18.60
2018-08-08T02:04:57.572Z,18.60
2018-08-08T02:07:35.252Z,18.50
2018-08-08T02:13:00.474Z,18.40
2018-08-08T02:15:44.665Z,18.40
2018-08-08T02:18:28.711Z,18.40
2018-08-08T02:21:14.032Z,18.40
2018-08-08T02:24:00.332Z,18.40
2018-08-08T02:26:42.532Z,18.40
2018-08-08T02:29:23.632Z,18.30
2018-08-08T02:32:09.814Z,18.30
2018-08-08T02:34:54.872Z,18.20
2018-08-08T02:37:33.776Z,18.20
2018-08-08T02:40:20.501Z,18.30
2018-08-08T02:43:05.595Z,18.20
2018-08-08T02:45:48.212Z,18.20
2018-08-08T02:51:07.651Z,18.10
2018-08-08T02:53:50.292Z,18.00
2018-08-08T02:56:36.212Z,17.90
2018-08-08T02:59:17.573Z,17.90
2018-08-08T03:01:56.893Z,17.90
2018-08-08T03:04:38.272Z,17.80
2018-08-08T03:07:19.252Z,17.80
2018-08-08T03:09:57.773Z,17.70
2018-08-08T03:12:38.352Z,17.70
2018-08-08T03:15:19.712Z,17.60
2018-08-08T03:17:59.452Z,17.60
2018-08-08T03:23:14.477Z,17.60
2018-08-08T03:25:57.872Z,17.60
2018-08-08T03:28:41.301Z,17.60
2018-08-08T03:31:27.194Z,17.60
2018-08-08T03:34:12.051Z,17.60
2018-08-08T03:36:53.652Z,17.70
2018-08-08T03:39:33.393Z,17.70
2018-08-08T03:42:14.113Z,17.70
2018-08-08T03:44:57.392Z,17.70
2018-08-08T03:47:36.732Z,17.60
2018-08-08T03:50:16.472Z,17.60
2018-08-08T03:52:55.791Z,17.60
2018-08-08T03:55:40.211Z,17.50
2018-08-08T03:58:23.072Z,17.50
2018-08-08T04:01:06.491Z,17.60
2018-08-08T04:03:49.512Z,17.50
2018-08-08T04:06:33.780Z,17.50
2018-08-08T04:27:20.592Z,18.90
2018-08-08T04:30:04.836Z,19.60
2018-08-08T04:32:48.477Z,20.10
2018-08-08T04:35:29.651Z,20.70
2018-08-08T04:38:19.392Z,21.00
2018-08-08T04:41:03.891Z,21.20
2018-08-08T04:43:45.691Z,21.30
2018-08-08T04:46:30.749Z,21.30
2018-08-08T04:49:20.452Z,21.20
2018-08-08T04:52:01.312Z,21.20
2018-08-08T04:54:44.351Z,21.20
2018-08-08T04:57:27.352Z,21.50
2018-08-08T05:00:05.467Z,22.00
2018-08-08T05:02:49.628Z,22.60
2018-08-08T05:05:31.910Z,23.30
2018-08-08T05:08:14.690Z,24.20
2018-08-08T05:10:59.770Z,24.90
2018-08-08T05:13:42.591Z,25.50
2018-08-08T05:16:24.714Z,25.90
2018-08-08T05:19:06.752Z,26.20
2018-08-08T05:21:50.842Z,26.20
2018-08-08T05:24:37.630Z,26.40
2018-08-08T05:27:19.723Z,26.90
2018-08-08T05:30:06.871Z,27.20
2018-08-08T05:32:46.671Z,27.70
2018-08-08T05:35:30.454Z,28.10
2018-08-08T05:38:08.991Z,28.50
2018-08-08T05:40:52.811Z,28.70
2018-08-08T05:43:33.769Z,28.60
2018-08-08T05:46:19.631Z,29.00
2018-08-08T05:49:05.995Z,28.70
2018-08-08T05:51:55.691Z,28.80
2018-08-08T05:54:43.071Z,29.00
2018-08-08T05:57:25.654Z,28.80
2018-08-08T06:00:24.270Z,28.70
2018-08-08T06:03:02.791Z,28.30
2018-08-08T06:05:45.570Z,28.00
2018-08-08T06:08:34.550Z,27.40
2018-08-08T06:14:00.353Z,26.30
2018-08-08T06:16:42.813Z,25.90
2018-08-08T06:19:27.251Z,25.60
2018-08-08T06:22:14.590Z,25.30
2018-08-08T06:24:58.030Z,25.20
2018-08-08T06:27:38.992Z,24.90
2018-08-08T06:30:27.031Z,24.50
2018-08-08T06:33:09.550Z,24.50
2018-08-08T06:35:53.812Z,24.70
2018-08-08T06:38:35.930Z,24.70
2018-08-08T06:41:25.990Z,24.80
2018-08-08T06:44:08.797Z,25.00
2018-08-08T06:46:58.170Z,25.20
2018-08-08T06:49:45.690Z,25.30
2018-08-08T06:52:28.713Z,25.50
2018-08-08T06:55:12.975Z,25.40
2018-08-08T06:57:56.810Z,25.60
2018-08-08T07:03:20.390Z,25.70
2018-08-08T07:06:00.111Z,25.90
2018-08-08T07:08:42.350Z,25.70
2018-08-08T07:11:21.770Z,25.50
2018-08-08T07:14:03.505Z,25.50
2018-08-08T07:16:44.450Z,25.50
2018-08-08T07:19:32.400Z,25.60
2018-08-08T07:22:56.730Z,25.60
2018-08-08T07:25:26.433Z,25.50
2018-08-08T07:27:56.590Z,25.60
2018-08-08T07:30:26.670Z,25.70
2018-08-08T07:32:56.890Z,25.80
2018-08-08T07:35:27.157Z,26.00
2018-08-08T07:37:56.730Z,26.20
2018-08-08T07:40:26.395Z,26.30
2018-08-08T07:42:56.091Z,26.50
2018-08-08T07:45:27.292Z,26.60
2018-08-08T07:47:57.532Z,26.80
2018-08-08T07:50:27.232Z,27.00
2018-08-08T07:52:56.812Z,27.00
2018-08-08T07:55:26.592Z,27.20
2018-08-08T07:57:56.271Z,27.40
2018-08-08T08:00:28.232Z,27.50
2018-08-08T08:02:59.852Z,27.60
2018-08-08T08:05:29.852Z,27.80
2018-08-08T08:07:59.888Z,28.20
2018-08-08T08:10:29.432Z,28.40
2018-08-08T08:12:59.333Z,28.80
2018-08-08T08:15:28.812Z,29.00
2018-08-08T08:17:58.412Z,29.20
2018-08-08T08:20:27.913Z,29.50
2018-08-08T08:22:57.493Z,29.80
2018-08-08T08:25:27.656Z,30.00
2018-08-08T08:27:57.653Z,29.90
2018-08-08T08:30:27.412Z,30.10
2018-08-08T08:32:57.012Z,30.40
2018-08-08T08:35:26.933Z,30.50
2018-08-08T08:37:56.683Z,30.70
2018-08-08T08:40:26.393Z,30.50
2018-08-08T08:42:56.048Z,30.30
2018-08-08T08:45:25.626Z,30.20
2018-08-08T08:47:55.153Z,30.00
2018-08-08T08:50:24.625Z,30.10
2018-08-08T08:52:54.093Z,30.10
2018-08-08T08:55:23.673Z,30.20
2018-08-08T08:57:53.174Z,30.40
2018-08-08T09:00:22.795Z,30.30
2018-08-08T09:02:52.893Z,30.10
2018-08-08T09:05:22.573Z,30.10
2018-08-08T09:07:52.450Z,30.20
2018-08-08T09:10:22.017Z,30.30
2018-08-08T09:12:51.773Z,30.30
2018-08-08T09:15:21.532Z,30.30
2018-08-08T09:17:51.493Z,30.20
2018-08-08T09:20:21.092Z,30.00
2018-08-08T09:22:50.972Z,30.20
2018-08-08T09:25:20.874Z,30.30
2018-08-08T09:27:50.714Z,30.50
2018-08-08T09:30:20.244Z,30.60
2018-08-08T09:32:50.033Z,30.60
2018-08-08T09:35:20.172Z,30.70
2018-08-08T09:37:49.663Z,30.60
2018-08-08T09:40:19.348Z,30.60
2018-08-08T09:42:48.853Z,30.70
2018-08-08T09:45:18.593Z,30.90
2018-08-08T09:47:48.312Z,31.10
2018-08-08T09:50:17.892Z,31.10
2018-08-08T09:52:47.825Z,31.30
2018-08-08T09:55:17.752Z,31.40
2018-08-08T09:57:47.832Z,31.30
2018-08-08T10:00:22.792Z,31.30
2018-08-08T10:02:57.572Z,31.30
2018-08-08T10:05:27.253Z,31.30
2018-08-08T10:07:56.773Z,31.50
2018-08-08T10:10:26.433Z,31.60
2018-08-08T10:12:56.073Z,31.70
2018-08-08T10:15:25.592Z,31.70
2018-08-08T10:17:55.532Z,32.00
2018-08-08T10:20:25.140Z,32.00
2018-08-08T10:22:54.781Z,32.00
2018-08-08T10:25:24.534Z,32.10
2018-08-08T10:27:54.135Z,32.10
2018-08-08T10:30:24.213Z,32.20
2018-08-08T10:32:53.853Z,32.20
2018-08-08T10:35:23.693Z,32.30
2018-08-08T10:37:53.512Z,32.50
2018-08-08T10:40:23.093Z,32.50
2018-08-08T10:42:53.033Z,32.60
2018-08-08T10:45:22.629Z,32.70
2018-08-08T10:47:52.553Z,32.60
2018-08-08T10:50:22.411Z,32.60
2018-08-08T10:52:51.853Z,32.80
2018-08-08T10:55:21.592Z,32.90
2018-08-08T10:57:51.112Z,33.00
2018-08-08T11:00:20.592Z,33.20
2018-08-08T11:02:50.052Z,33.20
2018-08-08T11:05:19.714Z,33.40
2018-08-08T11:07:49.329Z,33.40
2018-08-08T11:10:18.912Z,33.50
2018-08-08T11:12:48.832Z,33.50
2018-08-08T11:15:18.472Z,33.30
2018-08-08T11:17:48.032Z,33.20
2018-08-08T11:20:17.512Z,32.90
2018-08-08T11:22:47.372Z,33.00
2018-08-08T11:25:17.272Z,33.10
2018-08-08T11:27:46.794Z,33.20
2018-08-08T11:30:16.311Z,33.40
2018-08-08T11:32:45.752Z,33.50
2018-08-08T11:35:15.212Z,33.70
2018-08-08T11:37:44.792Z,33.90
2018-08-08T11:40:14.812Z,34.00
2018-08-08T11:42:44.692Z,34.10
2018-08-08T11:45:14.589Z,34.20
2018-08-08T11:47:44.472Z,34.00
2018-08-08T11:50:14.152Z,34.00
2018-08-08T11:52:43.818Z,34.20
2018-08-08T11:55:13.491Z,34.30
2018-08-08T11:57:43.371Z,34.00
2018-08-08T12:00:13.056Z,34.00
2018-08-08T12:02:42.752Z,34.20
2018-08-08T12:05:12.292Z,34.20
2018-08-08T12:07:41.872Z,34.30
2018-08-08T12:10:11.431Z,34.30
2018-08-08T12:12:40.971Z,34.40
2018-08-08T12:15:11.650Z,34.30
2018-08-08T12:17:41.310Z,34.30
2018-08-08T12:20:10.872Z,34.30
2018-08-08T12:22:40.508Z,34.30
2018-08-08T12:25:10.349Z,34.40
2018-08-08T12:27:40.230Z,34.50
2018-08-08T12:30:11.285Z,34.50
2018-08-08T12:32:41.191Z,34.50
2018-08-08T12:35:11.029Z,34.20
2018-08-08T12:37:40.931Z,34.30
2018-08-08T12:40:10.851Z,34.40
2018-08-08T12:42:40.390Z,34.50
2018-08-08T12:45:10.911Z,34.60
2018-08-08T12:47:40.470Z,34.70
2018-08-08T12:50:10.190Z,34.60
2018-08-08T12:52:39.916Z,34.50
2018-08-08T12:55:09.590Z,34.70
2018-08-08T12:57:39.131Z,34.80
2018-08-08T13:00:09.062Z,35.00
2018-08-08T13:02:38.857Z,35.00
2018-08-08T13:05:08.673Z,34.90
2018-08-08T13:07:38.210Z,35.00
2018-08-08T13:10:07.851Z,34.90
2018-08-08T13:12:37.943Z,35.10
2018-08-08T13:15:08.634Z,35.10
2018-08-08T13:17:38.411Z,34.70
2018-08-08T13:20:08.692Z,34.80
2018-08-08T13:22:38.331Z,34.80
2018-08-08T13:25:08.165Z,34.90
2018-08-08T13:27:37.651Z,35.00
2018-08-08T13:30:07.278Z,35.00
2018-08-08T13:32:37.793Z,35.10
2018-08-08T13:35:08.571Z,35.10
2018-08-08T13:37:38.092Z,34.70
2018-08-08T13:40:08.135Z,34.70
2018-08-08T13:42:37.684Z,34.60
2018-08-08T13:45:09.213Z,34.60
2018-08-08T13:47:39.292Z,34.60
2018-08-08T13:50:09.272Z,34.80
2018-08-08T13:52:38.912Z,35.00
2018-08-08T13:55:08.567Z,35.10
2018-08-08T13:57:38.572Z,35.10
2018-08-08T14:00:09.372Z,35.10
2018-08-08T14:02:38.892Z,35.30
2018-08-08T14:05:08.972Z,35.20
2018-08-08T14:07:38.772Z,35.30
2018-08-08T14:10:09.874Z,35.40
2018-08-08T14:12:39.492Z,35.60
2018-08-08T14:15:09.049Z,35.70
2018-08-08T14:17:38.832Z,35.70
2018-08-08T14:20:11.152Z,35.50
2018-08-08T14:22:41.652Z,35.50
2018-08-08T14:25:11.253Z,35.70
2018-08-08T14:27:41.315Z,35.60
2018-08-08T14:30:11.392Z,35.60
2018-08-08T14:32:41.453Z,35.40
2018-08-08T14:35:11.073Z,35.20
2018-08-08T14:37:40.635Z,35.20
2018-08-08T14:40:10.713Z,35.10
2018-08-08T14:42:40.333Z,35.40
2018-08-08T14:45:09.813Z,35.20
2018-08-08T14:47:39.353Z,35.20
2018-08-08T14:50:09.353Z,35.20
2018-08-08T14:52:39.186Z,35.20
2018-08-08T14:55:08.772Z,35.30
2018-08-08T14:57:38.972Z,35.40
2018-08-08T15:00:11.769Z,35.40
2018-08-08T15:02:41.452Z,35.60
2018-08-08T15:05:11.852Z,35.60
2018-08-08T15:07:41.512Z,35.60
2018-08-08T15:10:11.232Z,35.50
2018-08-08T15:12:40.793Z,35.30
2018-08-08T15:15:11.032Z,35.30
2018-08-08T15:17:40.557Z,35.30
2018-08-08T15:20:10.152Z,35.30
2018-08-08T15:22:39.592Z,35.10
2018-08-08T15:25:10.114Z,35.30
2018-08-08T15:27:39.853Z,35.40
2018-08-08T15:30:11.292Z,35.30
2018-08-08T15:32:41.653Z,35.10
2018-08-08T15:35:12.044Z,34.90
2018-08-08T15:37:42.095Z,34.70
2018-08-08T15:40:11.632Z,34.60
2018-08-08T15:42:41.369Z,34.50
2018-08-08T15:45:11.616Z,34.50
2018-08-08T15:47:41.197Z,34.50
2018-08-08T15:50:11.835Z,34.50
2018-08-08T15:52:41.476Z,34.50
2018-08-08T15:55:12.314Z,34.50
2018-08-08T15:57:41.896Z,34.50
2018-08-08T16:00:13.236Z,34.40
2018-08-08T16:02:42.796Z,34.40
2018-08-08T16:05:12.777Z,34.20
2018-08-08T16:07:42.616Z,34.20
2018-08-08T16:10:12.554Z,34.00
2018-08-08T16:12:42.376Z,34.00
2018-08-08T16:15:12.016Z,33.90
2018-08-08T16:17:41.936Z,33.80
2018-08-08T16:20:11.723Z,33.60
2018-08-08T16:22:41.202Z,33.60
2018-08-08T16:25:10.856Z,33.50
2018-08-08T16:27:40.329Z,33.50
2018-08-08T16:30:10.207Z,33.40
2018-08-08T16:32:40.356Z,33.60
2018-08-08T16:35:09.996Z,33.70
2018-08-08T16:37:39.521Z,33.90
2018-08-08T16:40:09.137Z,34.00
2018-08-08T16:42:38.552Z,34.10
2018-08-08T16:45:10.363Z,34.20
2018-08-08T16:47:39.883Z,34.30
2018-08-08T16:50:10.304Z,34.40
2018-08-08T16:52:39.783Z,34.50
2018-08-08T16:55:09.940Z,34.60
2018-08-08T16:57:39.383Z,34.60
2018-08-08T17:00:12.224Z,34.60
2018-08-08T17:02:41.857Z,34.70
2018-08-08T17:05:11.783Z,34.70
2018-08-08T17:07:41.423Z,34.80
2018-08-08T17:10:11.123Z,34.60
2018-08-08T17:12:40.634Z,34.50
2018-08-08T17:15:10.624Z,34.30
2018-08-08T17:17:40.163Z,34.00
2018-08-08T17:20:10.399Z,33.70
2018-08-08T17:22:40.024Z,33.40
2018-08-08T17:25:09.703Z,33.20
2018-08-08T17:27:39.243Z,33.00
2018-08-08T17:30:08.983Z,33.10
2018-08-08T17:32:38.713Z,33.20
2018-08-08T17:35:08.795Z,33.20
2018-08-08T17:37:38.403Z,33.20
2018-08-08T17:40:08.688Z,33.20
2018-08-08T17:42:38.464Z,33.20
2018-08-08T17:45:09.283Z,33.20
2018-08-08T17:47:38.882Z,33.10
2018-08-08T17:50:09.033Z,33.00
2018-08-08T17:52:38.903Z,33.00
2018-08-08T17:55:08.663Z,32.80
2018-08-08T17:57:38.363Z,32.50
2018-08-08T18:00:08.523Z,32.20
2018-08-08T18:02:37.983Z,31.80
2018-08-08T18:05:07.923Z,31.50
2018-08-08T18:07:37.669Z,31.30
2018-08-08T18:10:08.926Z,31.00
2018-08-08T18:12:38.850Z,30.80
2018-08-08T18:15:10.638Z,30.60
2018-08-08T18:17:40.158Z,30.40
2018-08-08T18:20:09.718Z,30.20
2018-08-08T18:22:39.318Z,30.10
2018-08-08T18:25:08.971Z,29.90
2018-08-08T18:27:38.638Z,29.80
2018-08-08T18:30:09.778Z,29.70
2018-08-08T18:32:39.579Z,29.50
2018-08-08T18:35:09.179Z,29.40
2018-08-08T18:37:38.783Z,29.20
2018-08-08T18:40:08.379Z,29.10
2018-08-08T18:42:37.986Z,29.00
2018-08-08T18:45:07.542Z,28.80
2018-08-08T18:47:37.058Z,28.70
2018-08-08T18:50:06.719Z,28.50
2018-08-08T18:52:36.299Z,28.40
2018-08-08T18:55:06.282Z,28.30
2018-08-08T18:57:35.759Z,28.20
2018-08-08T19:00:07.379Z,28.00
2018-08-08T19:02:37.475Z,27.80
2018-08-08T19:05:08.058Z,27.60
2018-08-08T19:07:38.258Z,27.50
2018-08-08T19:10:07.961Z,27.30
2018-08-08T19:12:38.338Z,27.10
2018-08-08T19:15:07.838Z,27.00
2018-08-08T19:17:37.479Z,26.90
2018-08-08T19:20:07.058Z,26.70
2018-08-08T19:22:36.558Z,26.60
2018-08-08T19:25:06.421Z,26.60
2018-08-08T19:27:36.018Z,26.50
2018-08-08T19:30:06.444Z,26.40
2018-08-08T19:32:36.318Z,26.30
2018-08-08T19:35:06.706Z,26.30
2018-08-08T19:37:36.479Z,26.30
2018-08-08T19:40:06.558Z,26.30
2018-08-08T19:42:36.102Z,26.20
2018-08-08T19:45:06.139Z,26.10
2018-08-08T19:47:35.758Z,26.10
2018-08-08T19:50:06.446Z,26.00
2018-08-08T19:52:36.298Z,25.90
2018-08-08T19:55:06.576Z,25.80
2018-08-08T19:58:07.259Z,25.70
2018-08-08T20:00:37.059Z,25.70
2018-08-08T20:03:07.072Z,25.60
2018-08-08T20:05:37.259Z,25.60
2018-08-08T20:08:07.349Z,25.60
2018-08-08T20:10:37.098Z,25.50
2018-08-08T20:13:07.272Z,25.50
2018-08-08T20:15:36.599Z,25.50
2018-08-08T20:18:06.579Z,25.40
2018-08-08T20:20:36.119Z,25.30
2018-08-08T20:23:05.759Z,25.30
2018-08-08T20:25:35.419Z,25.20
2018-08-08T20:28:04.918Z,25.10
2018-08-08T20:30:34.958Z,25.10
2018-08-08T20:33:04.559Z,25.10
2018-08-08T20:35:34.938Z,25.10
2018-08-08T20:38:04.858Z,25.00
2018-08-08T20:40:34.516Z,25.00
2018-08-08T20:43:03.999Z,25.00
2018-08-08T20:45:33.858Z,25.00
2018-08-08T20:48:03.678Z,24.90
2018-08-08T20:50:33.358Z,25.00
2018-08-08T20:53:03.038Z,25.00
2018-08-08T20:55:32.698Z,24.90
2018-08-08T20:58:02.898Z,24.90
2018-08-08T21:00:32.458Z,24.80
2018-08-08T21:03:01.986Z,24.80
2018-08-08T21:05:31.678Z,24.80
2018-08-08T21:08:01.268Z,24.80
2018-08-08T21:10:31.297Z,24.70
2018-08-08T21:13:01.460Z,24.70
2018-08-08T21:15:31.270Z,24.70
2018-08-08T21:18:01.438Z,24.70
2018-08-08T21:20:30.990Z,24.60
2018-08-08T21:23:00.930Z,24.50
2018-08-08T21:25:30.550Z,24.50
2018-08-08T21:28:00.150Z,24.40
2018-08-08T21:30:29.794Z,24.40
2018-08-08T21:32:59.340Z,24.30
2018-08-08T21:35:29.133Z,24.20
2018-08-08T21:37:59.230Z,24.10
2018-08-08T21:40:29.451Z,24.00
2018-08-08T21:42:59.277Z,24.00
2018-08-08T21:45:29.071Z,24.00
2018-08-08T21:47:58.790Z,23.90
2018-08-08T21:50:28.398Z,23.90
2018-08-08T21:52:57.953Z,23.90
2018-08-08T21:55:44.313Z,23.80
2018-08-08T21:58:30.045Z,23.90
2018-08-08T22:01:15.999Z,23.80
2018-08-08T22:04:01.529Z,23.80
2018-08-08T22:06:47.287Z,23.80
2018-08-08T22:09:33.080Z,23.80
2018-08-08T22:12:19.885Z,23.80
2018-08-08T22:15:13.933Z,23.70
2018-08-08T22:17:59.705Z,23.70
2018-08-08T22:20:29.245Z,23.70
2018-08-08T22:22:58.845Z,23.70
2018-08-08T22:25:28.468Z,23.60
2018-08-08T22:27:57.905Z,23.60
2018-08-08T22:30:27.427Z,23.60
2018-08-08T22:32:57.044Z,23.60
2018-08-08T22:35:26.603Z,23.60
2018-08-08T22:37:56.085Z,23.50
2018-08-08T22:40:25.625Z,23.50
2018-08-08T22:42:55.065Z,23.50
2018-08-08T22:45:24.545Z,23.40
2018-08-08T22:47:54.405Z,23.40
2018-08-08T22:50:24.105Z,23.30
2018-08-08T22:52:53.715Z,23.30
2018-08-08T22:55:23.329Z,23.20
2018-08-08T22:57:53.405Z,23.20
2018-08-08T23:00:23.085Z,23.10
2018-08-08T23:02:52.625Z,23.10
2018-08-08T23:05:22.285Z,23.10
2018-08-08T23:07:51.906Z,23.00
2018-08-08T23:10:21.486Z,23.00
2018-08-08T23:12:51.107Z,22.90
2018-08-08T23:15:20.800Z,22.90
2018-08-08T23:17:50.405Z,22.90
2018-08-08T23:20:20.007Z,22.90
2018-08-08T23:22:55.905Z,22.90
2018-08-08T23:25:25.585Z,22.90
2018-08-08T23:27:55.035Z,22.80
2018-08-08T23:30:24.566Z,22.80
2018-08-08T23:32:54.107Z,22.80
2018-08-08T23:37:58.705Z,22.80
2018-08-08T23:40:28.965Z,22.80
2018-08-08T23:42:59.321Z,22.70
2018-08-08T23:45:29.257Z,22.70
2018-08-08T23:47:58.779Z,22.70
2018-08-08T23:50:28.370Z,22.70
2018-08-08T23:52:57.919Z,22.70
2018-08-08T23:55:27.877Z,22.60
2018-08-08T23:57:57.486Z,22.60
